Time;durP1;ratioP1;P1;durP2;ratioP2;P2;SDS_P1;SDS_P2;PMS_P1;PMS_P2;Temp;Humidity;BMP_temperature;BMP_pressure;BME280_temperature;BME280_humidity;BME280_pressure;Samples;Min_cycle;Max_cycle;Signal;HPM_P1;HPM_P2
2023/01/09 00:00:34;;;;;;;3.73;1.73;;;8.30;99.90;;;;;;5105040;28;20205;-70
2023/01/09 00:03:01;;;;;;;2.83;1.50;;;8.30;99.90;;;;;;5109868;28;20211;-74
2023/01/09 00:05:28;;;;;;;2.93;1.60;;;8.30;99.90;;;;;;5106253;28;20534;-70
2023/01/09 00:07:55;;;;;;;3.67;1.50;;;8.20;99.90;;;;;;5107249;28;20315;-70
2023/01/09 00:10:21;;;;;;;2.33;1.50;;;8.20;99.90;;;;;;5105476;28;20316;-70
2023/01/09 00:12:48;;;;;;;1.90;1.70;;;8.10;99.90;;;;;;5104797;28;20197;-70
2023/01/09 00:15:15;;;;;;;1.50;1.30;;;8.10;99.90;;;;;;5103384;28;20573;-70
2023/01/09 00:17:42;;;;;;;4.50;1.40;;;8.10;99.90;;;;;;5108386;28;20299;-70
2023/01/09 00:20:09;;;;;;;3.20;1.60;;;8.10;99.90;;;;;;5104404;28;20235;-69
2023/01/09 00:22:37;;;;;;;4.77;1.43;;;8.10;99.90;;;;;;5108236;28;20214;-70
2023/01/09 00:25:04;;;;;;;3.87;1.60;;;8.10;99.90;;;;;;5108569;28;20519;-69
2023/01/09 00:27:33;;;;;;;5.47;2.03;;;8.10;99.90;;;;;;5104212;28;20193;-69
2023/01/09 00:30:00;;;;;;;2.30;1.60;;;8.10;99.90;;;;;;5092522;28;20223;-70
2023/01/09 00:32:27;;;;;;;3.73;1.40;;;8.00;99.90;;;;;;5106732;28;20221;-70
2023/01/09 00:34:55;;;;;;;3.63;1.60;;;8.00;99.90;;;;;;5107565;28;20279;-69
2023/01/09 00:37:22;;;;;;;5.87;2.17;;;7.90;99.90;;;;;;5108963;28;20206;-70
2023/01/09 00:39:49;;;;;;;2.90;1.70;;;7.90;99.90;;;;;;5107446;28;20663;-70
2023/01/09 00:42:20;;;;;;;3.67;1.90;;;7.90;99.90;;;;;;5107682;28;20191;-69
2023/01/09 00:44:54;;;;;;;4.40;2.03;;;7.90;99.90;;;;;;5107066;28;20238;-70
2023/01/09 00:47:33;;;;;;;2.70;1.53;;;7.90;99.90;;;;;;5107616;28;20292;-70
2023/01/09 00:50:06;;;;;;;3.37;2.13;;;7.90;99.90;;;;;;5107755;28;20223;-70
2023/01/09 00:52:36;;;;;;;4.13;1.80;;;7.80;99.90;;;;;;5104939;28;20202;-70
2023/01/09 00:55:04;;;;;;;3.33;2.00;;;7.80;99.90;;;;;;5104372;28;20651;-70
2023/01/09 00:57:31;;;;;;;2.80;1.97;;;7.70;99.90;;;;;;5106602;28;21441;-70
2023/01/09 00:59:58;;;;;;;5.87;2.17;;;7.70;99.90;;;;;;5109870;28;20209;-69
2023/01/09 01:02:25;;;;;;;4.17;2.27;;;7.60;99.90;;;;;;5101518;28;20207;-69
2023/01/09 01:07:38;;;;;;;3.10;2.27;;;7.60;99.90;;;;;;5091234;28;20282;-70
2023/01/09 01:10:09;;;;;;;2.60;2.03;;;7.60;99.90;;;;;;5106596;28;20720;-70
2023/01/09 01:12:38;;;;;;;4.70;2.43;;;7.60;99.90;;;;;;5087622;28;20242;-69
2023/01/09 01:15:06;;;;;;;2.97;2.10;;;7.60;99.90;;;;;;5107500;28;20230;-70
2023/01/09 01:17:35;;;;;;;6.47;2.27;;;7.60;99.90;;;;;;5108868;28;20211;-70
2023/01/09 01:20:04;;;;;;;4.50;2.40;;;7.50;99.90;;;;;;5089517;28;20231;-69
2023/01/09 01:22:31;;;;;;;5.13;2.23;;;7.50;99.90;;;;;;5106444;28;20255;-70
2023/01/09 01:24:58;;;;;;;6.60;2.23;;;7.40;99.90;;;;;;5107991;28;20201;-70
2023/01/09 01:27:26;;;;;;;6.40;2.30;;;7.40;99.90;;;;;;5090597;28;20226;-70
2023/01/09 01:29:54;;;;;;;4.80;2.13;;;7.30;99.90;;;;;;5107978;28;20211;-70
2023/01/09 01:32:23;;;;;;;3.93;2.37;;;7.30;99.90;;;;;;5105423;28;20245;-70
2023/01/09 01:34:50;;;;;;;2.83;2.23;;;7.30;99.90;;;;;;5107717;28;20247;-69
2023/01/09 01:37:17;;;;;;;2.57;1.80;;;7.20;99.90;;;;;;5105974;28;20600;-69
2023/01/09 01:39:44;;;;;;;6.50;2.60;;;7.20;99.90;;;;;;5109512;28;20198;-69
2023/01/09 01:42:14;;;;;;;4.87;2.47;;;7.10;99.90;;;;;;5089593;28;20206;-69
2023/01/09 01:45:02;;;;;;;6.50;2.80;;;7.10;99.90;;;;;;5108087;28;20284;-70
2023/01/09 01:47:37;;;;;;;7.40;2.87;;;7.00;99.90;;;;;;5108084;28;20225;-69
2023/01/09 01:50:11;;;;;;;5.57;2.50;;;7.00;99.90;;;;;;5089892;28;20282;-69
2023/01/09 01:52:38;;;;;;;5.70;2.80;;;6.90;99.90;;;;;;5089821;28;20231;-70
2023/01/09 01:55:08;;;;;;;3.77;2.93;;;6.90;99.90;;;;;;5104180;28;20199;-70
2023/01/09 01:57:39;;;;;;;3.93;2.80;;;6.80;99.90;;;;;;5107425;28;20229;-70
2023/01/09 02:00:06;;;;;;;4.70;3.47;;;6.80;99.90;;;;;;5104366;28;20196;-70
2023/01/09 02:02:33;;;;;;;5.63;3.30;;;6.80;99.90;;;;;;5110418;28;20299;-70
2023/01/09 02:05:01;;;;;;;8.03;3.50;;;6.70;99.90;;;;;;5110766;28;20239;-69
2023/01/09 02:07:28;;;;;;;6.83;3.60;;;6.80;99.90;;;;;;5104792;28;20208;-69
2023/01/09 02:09:56;;;;;;;6.53;3.33;;;6.70;99.90;;;;;;5090168;28;20216;-71
2023/01/09 02:12:25;;;;;;;6.50;4.00;;;6.60;99.90;;;;;;5108148;28;20196;-69
2023/01/09 02:15:13;;;;;;;5.47;3.87;;;6.60;99.90;;;;;;5111551;28;20280;-69
2023/01/09 02:18:12;;;;;;;5.43;3.77;;;6.60;99.90;;;;;;5104831;28;20220;-70
2023/01/09 02:20:44;;;;;;;8.33;4.43;;;6.60;99.90;;;;;;5108733;28;20233;-69
2023/01/09 02:23:50;;;;;;;12.97;5.80;;;6.60;99.90;;;;;;5108617;28;20241;-69
2023/01/09 02:26:39;;;;;;;9.40;5.40;;;6.50;99.90;;;;;;5108486;28;20202;-70
2023/01/09 02:29:43;;;;;;;11.57;6.87;;;6.50;99.90;;;;;;5107078;28;20313;-70
2023/01/09 02:32:16;;;;;;;17.13;8.20;;;6.50;99.90;;;;;;5109291;28;20260;-70
2023/01/09 02:34:56;;;;;;;14.37;8.73;;;6.60;99.90;;;;;;5111115;28;20202;-70
2023/01/09 02:37:54;;;;;;;18.13;9.60;;;6.50;99.90;;;;;;5109561;28;20223;-70
2023/01/09 02:40:41;;;;;;;16.63;9.80;;;6.60;99.90;;;;;;5107050;28;20287;-70
2023/01/09 02:43:10;;;;;;;17.33;10.83;;;6.60;99.90;;;;;;5108486;28;20735;-70
2023/01/09 02:45:37;;;;;;;17.73;11.70;;;6.60;99.90;;;;;;5109355;28;20196;-71
2023/01/09 02:48:04;;;;;;;23.80;12.80;;;6.50;99.90;;;;;;5107915;28;20219;-70
2023/01/09 02:50:39;;;;;;;17.60;11.13;;;6.50;99.90;;;;;;5109670;28;20333;-70
2023/01/09 02:53:50;;;;;;;17.80;11.43;;;6.50;99.90;;;;;;5107188;28;20586;-69
2023/01/09 02:56:25;;;;;;;17.77;11.40;;;6.50;99.90;;;;;;5096432;28;20229;-70
2023/01/09 02:59:01;;;;;;;20.90;12.00;;;6.50;99.90;;;;;;5108158;28;20235;-71
2023/01/09 03:01:36;;;;;;;17.00;10.80;;;6.50;99.90;;;;;;5109746;28;20307;-71
2023/01/09 03:04:06;;;;;;;22.00;11.87;;;6.40;99.90;;;;;;5109925;28;20336;-70
2023/01/09 03:06:46;;;;;;;17.80;11.27;;;6.40;99.90;;;;;;5109091;28;20204;-70
2023/01/09 03:09:23;;;;;;;22.53;12.07;;;6.40;99.90;;;;;;5107790;28;20283;-70
2023/01/09 03:12:01;;;;;;;20.70;10.30;;;6.40;99.90;;;;;;5107708;28;20218;-69
2023/01/09 03:14:30;;;;;;;18.20;10.47;;;6.40;99.90;;;;;;5106267;28;20329;-70
2023/01/09 03:17:02;;;;;;;16.40;10.90;;;6.30;99.90;;;;;;5109395;28;20654;-69
2023/01/09 03:19:30;;;;;;;17.57;10.37;;;6.30;99.90;;;;;;5092869;28;20245;-70
2023/01/09 03:21:58;;;;;;;18.73;10.90;;;6.30;99.90;;;;;;5110731;28;20220;-69
2023/01/09 03:24:25;;;;;;;20.47;12.00;;;6.20;99.90;;;;;;5106009;28;20207;-69
2023/01/09 03:26:53;;;;;;;25.37;13.33;;;6.20;99.90;;;;;;5111737;28;20280;-70
2023/01/09 03:29:21;;;;;;;19.87;11.40;;;6.20;99.90;;;;;;5105962;28;20206;-70
2023/01/09 03:31:47;;;;;;;19.13;11.23;;;6.20;99.90;;;;;;5106718;28;20353;-70
2023/01/09 03:34:14;;;;;;;19.87;11.87;;;6.10;99.90;;;;;;5106981;28;20196;-70
2023/01/09 03:36:41;;;;;;;21.43;12.57;;;6.10;99.90;;;;;;5107506;28;20207;-69
2023/01/09 03:39:08;;;;;;;18.43;12.97;;;6.10;99.90;;;;;;5109968;28;20283;-69
2023/01/09 03:41:34;;;;;;;23.03;13.17;;;6.10;99.90;;;;;;5092091;28;20286;-70
2023/01/09 03:44:01;;;;;;;21.77;12.77;;;6.10;99.90;;;;;;5110327;28;20238;-70
2023/01/09 03:46:28;;;;;;;19.77;12.47;;;6.00;99.90;;;;;;5089452;28;20208;-71
2023/01/09 03:48:54;;;;;;;21.07;12.77;;;6.00;99.90;;;;;;5108237;28;20203;-70
2023/01/09 03:51:21;;;;;;;20.53;12.07;;;6.00;99.90;;;;;;5109150;28;20260;-70
2023/01/09 03:53:48;;;;;;;21.53;12.47;;;6.00;99.90;;;;;;5092385;28;20206;-70
2023/01/09 03:56:15;;;;;;;22.00;12.40;;;6.00;99.90;;;;;;5107255;28;20246;-70
2023/01/09 03:58:42;;;;;;;21.50;11.83;;;5.90;99.90;;;;;;5090601;28;20200;-70
2023/01/09 04:01:11;;;;;;;22.33;11.30;;;6.00;99.90;;;;;;5090359;28;20302;-70
2023/01/09 04:03:39;;;;;;;21.40;10.97;;;5.90;99.90;;;;;;5108640;28;20269;-70
2023/01/09 04:06:06;;;;;;;17.63;11.03;;;5.90;99.90;;;;;;5109348;28;20199;-70
2023/01/09 04:08:33;;;;;;;20.43;11.73;;;5.90;99.90;;;;;;5109645;28;20208;-70
2023/01/09 04:10:59;;;;;;;22.90;11.30;;;5.90;99.90;;;;;;5109588;28;20298;-69
2023/01/09 04:13:26;;;;;;;18.50;11.13;;;5.90;99.90;;;;;;5108951;28;20289;-69
2023/01/09 04:15:53;;;;;;;16.57;10.63;;;5.90;99.90;;;;;;5108399;28;20866;-69
2023/01/09 04:18:20;;;;;;;18.53;10.33;;;5.80;99.90;;;;;;5090117;28;20635;-70
2023/01/09 04:20:47;;;;;;;18.17;10.50;;;5.80;99.90;;;;;;5107354;28;20249;-69
2023/01/09 04:23:14;;;;;;;23.87;10.73;;;5.80;99.90;;;;;;5090780;28;20626;-70
2023/01/09 04:25:41;;;;;;;18.60;11.17;;;5.80;99.90;;;;;;5107598;28;20244;-70
2023/01/09 04:28:08;;;;;;;16.87;9.77;;;5.80;99.90;;;;;;5106456;28;20273;-70
2023/01/09 04:30:35;;;;;;;16.10;9.30;;;5.80;99.90;;;;;;5107941;28;20287;-70
2023/01/09 04:33:02;;;;;;;17.50;8.90;;;5.80;99.90;;;;;;5107747;28;20220;-70
2023/01/09 04:35:28;;;;;;;13.93;8.27;;;5.80;99.90;;;;;;5108754;28;20203;-70
2023/01/09 04:37:55;;;;;;;19.40;8.10;;;5.70;99.90;;;;;;5088630;28;20234;-70
2023/01/09 04:40:22;;;;;;;14.70;7.43;;;5.70;99.90;;;;;;5108851;28;20663;-71
2023/01/09 04:42:48;;;;;;;14.00;8.00;;;5.70;99.90;;;;;;5085759;28;20658;-70
2023/01/09 04:45:16;;;;;;;10.97;7.07;;;5.70;99.90;;;;;;5102950;28;20347;-70
2023/01/09 04:47:43;;;;;;;16.00;7.27;;;5.70;99.90;;;;;;5109926;28;20248;-69
2023/01/09 04:50:11;;;;;;;13.97;6.63;;;5.70;99.90;;;;;;5091403;28;20202;-70
2023/01/09 04:52:37;;;;;;;13.70;6.80;;;5.70;99.90;;;;;;5087313;28;20227;-71
2023/01/09 04:55:06;;;;;;;11.87;5.63;;;5.70;99.90;;;;;;5102135;28;20676;-71
2023/01/09 04:57:33;;;;;;;15.43;7.07;;;5.70;99.90;;;;;;5082492;28;20264;-70
2023/01/09 05:00:00;;;;;;;10.20;5.70;;;5.70;99.90;;;;;;5086302;28;20205;-70
2023/01/09 05:02:27;;;;;;;12.43;5.87;;;5.70;99.90;;;;;;5102987;28;20275;-71
2023/01/09 05:04:54;;;;;;;11.40;6.27;;;5.70;99.90;;;;;;5107966;28;21143;-70
2023/01/09 05:07:21;;;;;;;8.80;5.77;;;5.60;99.90;;;;;;5108160;28;20202;-70
2023/01/09 05:09:47;;;;;;;11.60;6.10;;;5.60;99.90;;;;;;5107306;28;20203;-72
2023/01/09 05:12:14;;;;;;;11.83;5.97;;;5.60;99.90;;;;;;5089824;28;20647;-70
2023/01/09 05:14:41;;;;;;;11.10;5.63;;;5.60;99.90;;;;;;5090064;28;20203;-70
2023/01/09 05:17:08;;;;;;;13.07;5.53;;;5.60;99.90;;;;;;5105990;28;20204;-71
2023/01/09 05:19:35;;;;;;;11.73;5.53;;;5.70;99.90;;;;;;5090272;28;20311;-70
2023/01/09 05:22:01;;;;;;;11.37;5.37;;;5.60;99.90;;;;;;5101444;28;20229;-71
2023/01/09 05:24:28;;;;;;;10.87;5.33;;;5.70;99.90;;;;;;5089948;28;20283;-70
2023/01/09 05:26:55;;;;;;;12.30;4.67;;;5.70;99.90;;;;;;5109516;28;20553;-70
2023/01/09 05:29:22;;;;;;;9.87;5.17;;;5.80;99.90;;;;;;5107399;28;20238;-71
2023/01/09 05:31:48;;;;;;;10.37;5.40;;;5.80;99.90;;;;;;5107076;28;20219;-70
2023/01/09 05:34:15;;;;;;;13.60;5.50;;;5.80;99.90;;;;;;5091740;28;20291;-69
2023/01/09 05:36:42;;;;;;;12.73;5.37;;;5.90;99.90;;;;;;5111120;28;20193;-69
2023/01/09 05:39:09;;;;;;;11.63;5.30;;;5.90;99.90;;;;;;5095325;28;20238;-69
2023/01/09 05:41:36;;;;;;;11.90;5.37;;;6.00;99.90;;;;;;5111284;28;20747;-71
2023/01/09 05:44:03;;;;;;;9.97;5.33;;;6.00;99.90;;;;;;5091486;28;20592;-69
2023/01/09 05:46:31;;;;;;;10.40;5.63;;;6.00;99.90;;;;;;5092431;28;20212;-71
2023/01/09 05:48:58;;;;;;;10.83;5.53;;;6.00;99.90;;;;;;5107934;28;20211;-70
2023/01/09 05:51:24;;;;;;;12.30;5.93;;;6.00;99.90;;;;;;5088906;28;20243;-71
2023/01/09 05:53:51;;;;;;;12.80;5.97;;;6.00;99.90;;;;;;5091076;28;20203;-71
2023/01/09 05:56:18;;;;;;;9.60;6.00;;;6.00;99.90;;;;;;5088636;28;20200;-70
2023/01/09 05:58:45;;;;;;;11.83;6.07;;;6.00;99.90;;;;;;5087588;28;20235;-71
2023/01/09 06:01:11;;;;;;;12.50;5.67;;;6.00;99.90;;;;;;5083621;28;20299;-70
2023/01/09 06:03:38;;;;;;;12.03;5.33;;;6.00;99.90;;;;;;5083868;28;20199;-70
2023/01/09 06:06:05;;;;;;;12.97;7.03;;;6.00;99.90;;;;;;5091278;28;20197;-71
2023/01/09 06:08:32;;;;;;;11.70;6.07;;;6.00;99.90;;;;;;5086484;28;20278;-71
2023/01/09 06:10:59;;;;;;;11.63;5.60;;;6.00;99.90;;;;;;5092017;28;20197;-70
2023/01/09 06:13:26;;;;;;;15.87;5.73;;;6.00;99.90;;;;;;5089692;28;20807;-70
2023/01/09 06:15:52;;;;;;;13.40;5.60;;;6.00;99.90;;;;;;5088101;28;20310;-70
2023/01/09 06:18:19;;;;;;;18.50;6.10;;;6.10;99.90;;;;;;5085774;28;20209;-70
2023/01/09 06:20:46;;;;;;;9.63;5.53;;;6.10;99.90;;;;;;5088251;28;20279;-71
2023/01/09 06:23:13;;;;;;;9.53;5.23;;;6.10;99.90;;;;;;5088888;28;20200;-70
2023/01/09 06:25:40;;;;;;;14.97;5.27;;;6.20;99.90;;;;;;5090985;28;20310;-70
2023/01/09 06:28:06;;;;;;;10.63;5.40;;;6.20;99.90;;;;;;5086972;28;20279;-70
2023/01/09 06:30:33;;;;;;;12.17;4.97;;;6.30;99.90;;;;;;5087567;28;20352;-70
2023/01/09 06:33:00;;;;;;;9.33;4.13;;;6.30;99.90;;;;;;5085316;28;20260;-70
2023/01/09 06:35:27;;;;;;;12.20;4.57;;;6.40;99.90;;;;;;5088381;28;20201;-70
2023/01/09 06:37:54;;;;;;;9.37;4.60;;;6.30;99.90;;;;;;5088586;28;20284;-70
2023/01/09 06:40:20;;;;;;;14.23;4.50;;;6.40;99.90;;;;;;5084756;28;20284;-70
2023/01/09 06:42:48;;;;;;;7.87;3.83;;;6.40;99.90;;;;;;5081509;28;20204;-71
2023/01/09 06:45:15;;;;;;;7.97;3.93;;;6.40;99.90;;;;;;5100588;28;20289;-71
2023/01/09 06:47:42;;;;;;;6.43;3.77;;;6.40;99.90;;;;;;5106140;28;20229;-71
2023/01/09 06:50:10;;;;;;;7.30;3.63;;;6.40;99.90;;;;;;5107996;28;20275;-70
2023/01/09 06:52:37;;;;;;;9.13;3.73;;;6.50;99.90;;;;;;5109146;28;20217;-71
2023/01/09 06:55:04;;;;;;;9.33;4.13;;;6.50;99.90;;;;;;5110003;28;20193;-70
2023/01/09 06:57:31;;;;;;;9.80;4.30;;;6.50;99.90;;;;;;5105933;28;20257;-71
2023/01/09 06:59:57;;;;;;;11.17;3.77;;;6.60;99.90;;;;;;5108201;28;20212;-70
2023/01/09 07:02:24;;;;;;;9.90;3.50;;;6.60;99.90;;;;;;5106800;28;20226;-70
2023/01/09 07:04:51;;;;;;;8.93;3.60;;;6.60;99.90;;;;;;5108555;28;20687;-70
2023/01/09 07:07:19;;;;;;;9.03;3.70;;;6.70;99.90;;;;;;5106964;28;20297;-69
2023/01/09 07:09:46;;;;;;;6.57;3.27;;;6.70;99.90;;;;;;5108219;28;20253;-69
2023/01/09 07:12:14;;;;;;;7.73;3.20;;;6.70;99.90;;;;;;5110494;28;20228;-70
2023/01/09 07:14:41;;;;;;;9.77;3.50;;;6.70;99.90;;;;;;5110939;28;20232;-70
2023/01/09 07:17:11;;;;;;;6.90;3.53;;;6.70;99.90;;;;;;5110529;28;20236;-70
2023/01/09 07:19:38;;;;;;;10.17;3.10;;;6.80;99.90;;;;;;5109799;28;20199;-71
2023/01/09 07:22:04;;;;;;;12.87;3.70;;;6.80;99.90;;;;;;5111545;28;20192;-71
2023/01/09 07:24:31;;;;;;;13.00;3.90;;;6.80;99.90;;;;;;5111308;28;20192;-70
2023/01/09 07:26:58;;;;;;;9.53;3.23;;;6.80;99.90;;;;;;5109642;28;20676;-70
2023/01/09 07:29:24;;;;;;;5.90;3.47;;;6.90;99.90;;;;;;5109499;28;20293;-70
2023/01/09 07:31:51;;;;;;;8.57;3.37;;;6.90;99.90;;;;;;5110129;28;20279;-70
2023/01/09 07:34:18;;;;;;;6.93;2.80;;;6.90;99.90;;;;;;5107766;28;20290;-70
2023/01/09 07:36:51;;;;;;;8.67;3.30;;;7.00;99.90;;;;;;5109976;28;20278;-70
2023/01/09 07:39:17;;;;;;;8.13;2.93;;;7.00;99.90;;;;;;5109763;28;20202;-70
2023/01/09 07:41:44;;;;;;;9.27;2.93;;;7.00;99.90;;;;;;5103183;28;20244;-71
2023/01/09 07:44:11;;;;;;;6.23;2.80;;;7.00;99.90;;;;;;5102883;28;20225;-70
2023/01/09 07:46:38;;;;;;;7.43;3.40;;;7.00;99.90;;;;;;5108346;28;20306;-70
2023/01/09 07:49:05;;;;;;;7.20;3.33;;;7.00;99.90;;;;;;5090203;28;20659;-70
2023/01/09 07:51:32;;;;;;;9.80;3.63;;;7.00;99.90;;;;;;5106381;28;20702;-70
2023/01/09 07:53:59;;;;;;;10.67;3.73;;;7.10;99.90;;;;;;5109311;28;20305;-70
2023/01/09 07:56:25;;;;;;;8.97;3.87;;;7.10;99.90;;;;;;5104897;28;20202;-70
2023/01/09 07:58:52;;;;;;;8.13;3.53;;;7.00;99.90;;;;;;5106640;28;20201;-70
2023/01/09 08:01:19;;;;;;;10.13;3.20;;;7.00;99.90;;;;;;5090733;28;20701;-70
2023/01/09 08:03:45;;;;;;;8.33;3.40;;;7.10;99.90;;;;;;5106749;28;20196;-71
2023/01/09 08:06:12;;;;;;;11.27;4.57;;;7.10;99.90;;;;;;5110271;28;20300;-69
2023/01/09 08:08:39;;;;;;;10.23;3.47;;;7.10;99.90;;;;;;5090009;28;20538;-70
2023/01/09 08:11:06;;;;;;;12.97;4.27;;;7.10;99.90;;;;;;5109933;28;20241;-70
2023/01/09 08:13:32;;;;;;;7.03;3.27;;;7.10;99.90;;;;;;5102812;28;20304;-71
2023/01/09 08:15:59;;;;;;;9.20;3.93;;;7.10;99.90;;;;;;5097569;28;20243;-71
2023/01/09 08:18:26;;;;;;;10.23;3.70;;;7.10;99.90;;;;;;5093510;28;20206;-71
2023/01/09 08:20:53;;;;;;;8.07;3.23;;;7.10;99.90;;;;;;5097555;28;20283;-71
2023/01/09 08:23:19;;;;;;;10.10;3.63;;;7.10;99.90;;;;;;5098822;28;20671;-71
2023/01/09 08:25:46;;;;;;;6.43;3.43;;;7.10;99.90;;;;;;5099451;28;20225;-68
2023/01/09 08:28:13;;;;;;;12.63;3.60;;;7.10;99.90;;;;;;5084072;28;20700;-71
2023/01/09 08:30:39;;;;;;;8.37;3.80;;;7.10;99.90;;;;;;5104929;28;20561;-70
2023/01/09 08:33:06;;;;;;;10.60;3.80;;;7.10;99.90;;;;;;5103769;28;20658;-70
2023/01/09 08:35:33;;;;;;;7.73;4.00;;;7.10;99.90;;;;;;5105098;28;20225;-70
2023/01/09 08:38:00;;;;;;;10.07;3.77;;;7.10;99.90;;;;;;5105209;28;20289;-70
2023/01/09 08:40:26;;;;;;;9.10;4.40;;;7.20;99.90;;;;;;5106133;28;20215;-71
2023/01/09 08:48:24;;;;;;;11.43;4.53;;;7.20;99.90;;;;;;5066208;28;20317;-69
2023/01/09 08:50:52;;;;;;;10.30;4.10;;;7.20;99.90;;;;;;5068027;28;20733;-69
2023/01/09 08:53:19;;;;;;;9.03;4.07;;;7.10;99.90;;;;;;5068614;28;20571;-70
2023/01/09 08:55:46;;;;;;;11.30;5.00;;;7.20;99.90;;;;;;5068143;28;20192;-70
2023/01/09 08:58:13;;;;;;;7.67;4.30;;;7.20;99.90;;;;;;5067789;28;20852;-69
2023/01/09 09:00:40;;;;;;;6.83;4.20;;;7.20;99.90;;;;;;5067841;28;20285;-70
2023/01/09 09:03:08;;;;;;;7.10;4.20;;;7.20;99.90;;;;;;5065526;28;20261;-70
2023/01/09 09:05:35;;;;;;;7.37;3.93;;;7.20;99.90;;;;;;5068304;28;20571;-71
2023/01/09 09:08:02;;;;;;;8.17;3.60;;;7.20;99.90;;;;;;5068022;28;20209;-71
2023/01/09 09:10:30;;;;;;;6.00;3.63;;;7.20;99.90;;;;;;5073140;28;20237;-71
2023/01/09 09:12:58;;;;;;;6.20;3.07;;;7.10;99.90;;;;;;5073645;28;20228;-71
2023/01/09 09:15:26;;;;;;;6.63;3.20;;;7.10;99.90;;;;;;5075488;28;20210;-71
2023/01/09 09:17:56;;;;;;;4.07;2.57;;;7.10;99.90;;;;;;5074766;28;20214;-69
2023/01/09 09:20:29;;;;;;;4.60;2.67;;;7.10;99.90;;;;;;5075086;28;20212;-70
2023/01/09 09:22:56;;;;;;;6.23;3.00;;;7.10;99.90;;;;;;5073988;28;20293;-70
2023/01/09 09:25:24;;;;;;;4.13;2.70;;;7.10;99.90;;;;;;5073510;28;20227;-70
2023/01/09 09:27:51;;;;;;;6.37;3.10;;;7.10;99.90;;;;;;5074435;28;20298;-71
2023/01/09 09:30:19;;;;;;;6.03;3.50;;;7.10;99.90;;;;;;5074700;28;20281;-70
2023/01/09 09:32:46;;;;;;;5.53;3.67;;;7.10;99.90;;;;;;5075032;28;20216;-72
2023/01/09 09:35:13;;;;;;;5.70;3.80;;;7.10;99.90;;;;;;5074985;28;20386;-69
2023/01/09 09:37:40;;;;;;;5.53;3.80;;;7.10;99.90;;;;;;5075333;28;20198;-70
2023/01/09 09:40:26;;;;;;;5.33;3.93;;;7.10;99.90;;;;;;5073985;28;20198;-70
2023/01/09 09:46:07;;;;;;;8.03;5.40;;;7.10;99.90;;;;;;5074005;28;20288;-70
2023/01/09 09:48:42;;;;;;;7.80;5.33;;;7.10;99.90;;;;;;5074599;28;20279;-69
2023/01/09 09:51:16;;;;;;;8.40;5.90;;;7.10;99.90;;;;;;5074690;28;20200;-70
2023/01/09 09:53:59;;;;;;;9.10;5.67;;;7.10;99.90;;;;;;5073375;28;20224;-71
2023/01/09 09:56:31;;;;;;;9.73;5.30;;;7.10;99.90;;;;;;5073342;28;20239;-70
2023/01/09 09:59:03;;;;;;;10.83;5.70;;;7.10;99.90;;;;;;5072818;28;20283;-71
2023/01/09 10:01:40;;;;;;;8.37;5.67;;;7.20;99.90;;;;;;5068398;28;20226;-71
2023/01/09 10:04:15;;;;;;;9.07;5.80;;;7.20;99.90;;;;;;5073035;28;20200;-71
2023/01/09 10:06:44;;;;;;;10.70;5.97;;;7.30;99.90;;;;;;5073332;28;20617;-68
2023/01/09 10:09:47;;;;;;;9.20;5.37;;;7.20;99.90;;;;;;5074262;28;20257;-70
2023/01/09 10:12:28;;;;;;;8.50;5.13;;;7.30;99.90;;;;;;5070300;28;21227;-70
2023/01/09 10:15:00;;;;;;;8.37;5.73;;;7.30;99.90;;;;;;5069497;28;20200;-71
2023/01/09 10:17:54;;;;;;;7.67;5.43;;;7.50;99.90;;;;;;5069485;28;20672;-69
2023/01/09 10:20:24;;;;;;;9.13;5.10;;;7.50;99.90;;;;;;5071098;28;20255;-71
2023/01/09 10:23:11;;;;;;;7.20;4.90;;;7.60;99.90;;;;;;5068932;28;20532;-71
2023/01/09 10:25:55;;;;;;;9.00;5.40;;;7.60;99.90;;;;;;5068954;28;20326;-71
2023/01/09 10:28:52;;;;;;;8.67;5.27;;;7.60;99.90;;;;;;5070027;28;20199;-71
2023/01/09 10:32:00;;;;;;;8.07;4.80;;;7.70;99.90;;;;;;5069007;28;20252;-69
2023/01/09 10:34:41;;;;;;;10.90;5.20;;;7.70;99.90;;;;;;5069318;28;20385;-69
2023/01/09 10:37:14;;;;;;;9.90;5.10;;;7.80;99.90;;;;;;5071047;28;20359;-69
2023/01/09 10:39:53;;;;;;;10.23;5.23;;;7.70;99.90;;;;;;5070351;28;20209;-69
2023/01/09 10:42:40;;;;;;;8.93;4.10;;;7.80;99.90;;;;;;5066373;28;20211;-70
2023/01/09 10:45:21;;;;;;;8.37;4.17;;;7.80;99.90;;;;;;5101924;28;20286;-70
2023/01/09 10:47:48;;;;;;;6.60;3.93;;;7.90;99.90;;;;;;5108732;28;20242;-69
2023/01/09 10:50:19;;;;;;;5.73;3.00;;;7.90;99.90;;;;;;5106178;28;20198;-69
2023/01/09 10:52:50;;;;;;;5.20;3.23;;;7.80;99.90;;;;;;5105438;28;20285;-70
2023/01/09 10:55:39;;;;;;;6.47;2.70;;;7.80;99.90;;;;;;5108872;28;20227;-70
2023/01/09 10:58:18;;;;;;;7.93;2.63;;;7.70;99.90;;;;;;5090578;28;20196;-70
2023/01/09 11:00:46;;;;;;;5.13;2.03;;;7.70;99.90;;;;;;5108552;28;20240;-70
2023/01/09 11:03:15;;;;;;;4.40;1.90;;;7.70;99.90;;;;;;5088636;28;20208;-69
2023/01/09 11:05:43;;;;;;;2.83;1.30;;;7.70;99.90;;;;;;5106353;28;20519;-70
2023/01/09 11:08:19;;;;;;;3.43;1.53;;;7.70;99.90;;;;;;5102347;28;20290;-71
2023/01/09 11:10:54;;;;;;;6.20;3.20;;;7.70;99.90;;;;;;5106551;28;20225;-70
2023/01/09 11:13:24;;;;;;;6.10;2.20;;;7.70;99.90;;;;;;5104327;28;20738;-70
2023/01/09 11:16:22;;;;;;;4.43;2.03;;;7.80;99.90;;;;;;5102744;28;20188;-69
2023/01/09 11:18:57;;;;;;;3.77;1.70;;;7.80;99.90;;;;;;5109878;28;20250;-70
2023/01/09 11:21:27;;;;;;;9.07;2.23;;;7.90;99.90;;;;;;5105522;28;20621;-71
2023/01/09 11:23:55;;;;;;;8.60;2.43;;;7.90;99.90;;;;;;5102581;28;20288;-71
2023/01/09 11:26:25;;;;;;;10.27;3.20;;;7.90;99.90;;;;;;5101485;28;20243;-70
2023/01/09 11:29:24;;;;;;;12.03;3.10;;;8.00;99.90;;;;;;5084308;28;20659;-71
2023/01/09 11:31:54;;;;;;;10.00;3.63;;;8.10;99.90;;;;;;5062675;28;20224;-70
2023/01/09 11:34:24;;;;;;;11.33;3.00;;;8.10;99.90;;;;;;5106225;28;20639;-70
2023/01/09 11:36:53;;;;;;;12.27;3.30;;;8.20;99.90;;;;;;5081017;28;20666;-70
2023/01/09 11:39:25;;;;;;;12.47;2.90;;;8.20;99.90;;;;;;5083890;28;20210;-71
2023/01/09 11:41:58;;;;;;;9.37;3.73;;;8.30;99.90;;;;;;5100119;28;20284;-71
2023/01/09 11:44:26;;;;;;;5.97;3.07;;;8.40;99.90;;;;;;5104144;28;20328;-70
2023/01/09 11:46:53;;;;;;;12.63;3.57;;;8.50;99.90;;;;;;5108040;28;20263;-71
2023/01/09 11:49:23;;;;;;;10.23;3.33;;;8.50;99.90;;;;;;5107660;28;20566;-72
2023/01/09 11:52:16;;;;;;;11.87;3.37;;;8.60;99.90;;;;;;5106846;28;20201;-71
2023/01/09 11:55:03;;;;;;;9.17;3.10;;;8.60;99.90;;;;;;5102496;28;20722;-70
2023/01/09 11:57:31;;;;;;;8.07;2.70;;;8.50;99.90;;;;;;5105562;28;20198;-70
2023/01/09 12:00:02;;;;;;;8.27;2.67;;;8.60;99.90;;;;;;5101022;28;20230;-72
2023/01/09 12:02:36;;;;;;;7.67;3.07;;;8.60;99.90;;;;;;5107478;28;20761;-72
2023/01/09 12:05:24;;;;;;;7.17;2.50;;;8.60;99.90;;;;;;5104586;28;20224;-71
2023/01/09 12:08:18;;;;;;;15.73;2.67;;;8.60;99.90;;;;;;5105810;28;20196;-71
2023/01/09 12:11:11;;;;;;;8.83;2.30;;;8.60;99.90;;;;;;5103379;28;20630;-72
2023/01/09 12:13:55;;;;;;;8.13;2.13;;;8.60;99.90;;;;;;5106913;28;20633;-72
2023/01/09 12:16:49;;;;;;;6.27;2.70;;;8.70;99.90;;;;;;5104236;28;20259;-71
2023/01/09 12:19:48;;;;;;;10.23;2.90;;;8.70;99.90;;;;;;5102352;28;20551;-71
2023/01/09 12:22:33;;;;;;;11.23;2.53;;;8.70;99.90;;;;;;5100227;28;20219;-71
2023/01/09 12:25:31;;;;;;;8.47;2.13;;;8.70;99.90;;;;;;5103917;28;20297;-71
2023/01/09 12:28:26;;;;;;;7.10;2.40;;;8.80;99.90;;;;;;5100471;28;20195;-70
2023/01/09 12:31:14;;;;;;;9.07;2.90;;;8.80;99.90;;;;;;5103367;28;20555;-70
2023/01/09 12:34:06;;;;;;;9.43;2.90;;;8.80;99.90;;;;;;5106265;28;20227;-70
2023/01/09 12:37:04;;;;;;;13.57;3.17;;;9.00;99.90;;;;;;5103684;28;20679;-72
2023/01/09 12:39:57;;;;;;;18.70;3.50;;;9.00;99.90;;;;;;5018366;28;20198;-70
2023/01/09 12:42:42;;;;;;;11.37;2.90;;;9.00;99.90;;;;;;5101604;28;20236;-71
2023/01/09 12:45:37;;;;;;;9.80;2.93;;;9.00;99.90;;;;;;5101050;28;20319;-72
2023/01/09 12:48:23;;;;;;;13.77;3.50;;;9.00;99.90;;;;;;5105715;28;20706;-71
2023/01/09 12:50:56;;;;;;;9.47;2.83;;;9.00;99.90;;;;;;5108031;28;20285;-70
2023/01/09 12:53:33;;;;;;;8.13;3.20;;;9.00;99.90;;;;;;5102292;28;20308;-70
2023/01/09 12:56:27;;;;;;;12.47;3.50;;;9.10;99.90;;;;;;5105664;28;20199;-71
2023/01/09 12:59:08;;;;;;;12.03;3.80;;;9.10;99.90;;;;;;5102426;28;20208;-70
2023/01/09 13:01:43;;;;;;;15.70;3.60;;;9.10;99.90;;;;;;5104328;28;20224;-71
2023/01/09 13:04:20;;;;;;;14.17;3.60;;;9.00;99.90;;;;;;5105614;28;20198;-71
2023/01/09 13:06:58;;;;;;;10.27;3.67;;;9.00;99.90;;;;;;5105626;28;20197;-72
2023/01/09 13:09:38;;;;;;;8.43;3.73;;;9.00;99.90;;;;;;5100566;28;20234;-71
2023/01/09 13:12:25;;;;;;;9.00;3.10;;;9.00;99.90;;;;;;5102820;28;20859;-71
2023/01/09 13:15:00;;;;;;;11.57;4.63;;;8.90;99.90;;;;;;5106843;28;20354;-70
2023/01/09 13:17:41;;;;;;;9.10;3.60;;;8.90;99.90;;;;;;5101435;28;20225;-71
2023/01/09 13:20:19;;;;;;;10.23;3.83;;;8.80;99.90;;;;;;5100088;28;20191;-72
2023/01/09 13:22:49;;;;;;;14.93;3.73;;;8.80;99.90;;;;;;5105930;28;20710;-71
2023/01/09 13:25:44;;;;;;;10.83;3.77;;;8.60;99.90;;;;;;5101632;28;20205;-70